sensor_id;sensor_type;location;lat;lon;timestamp;P1;durP1;ratioP1;P2;durP2;ratioP2
6223;SDS011;3145;42.726;23.342;2023-04-03T00:01:59;9.87;;;8.97;;
6223;SDS011;3145;42.726;23.342;2023-04-03T00:04:27;12.93;;;11.60;;
6223;SDS011;3145;42.726;23.342;2023-04-03T00:06:54;12.57;;;11.30;;
6223;SDS011;3145;42.726;23.342;2023-04-03T00:09:20;14.77;;;10.67;;
6223;SDS011;3145;42.726;23.342;2023-04-03T00:11:47;9.90;;;9.03;;
6223;SDS011;3145;42.726;23.342;2023-04-03T00:14:14;11.53;;;10.40;;
6223;SDS011;3145;42.726;23.342;2023-04-03T00:16:41;12.00;;;10.60;;
6223;SDS011;3145;42.726;23.342;2023-04-03T00:19:07;11.87;;;10.63;;
6223;SDS011;3145;42.726;23.342;2023-04-03T00:21:38;11.87;;;10.87;;
6223;SDS011;3145;42.726;23.342;2023-04-03T00:24:05;12.10;;;11.10;;
6223;SDS011;3145;42.726;23.342;2023-04-03T00:26:32;13.87;;;12.47;;
6223;SDS011;3145;42.726;23.342;2023-04-03T00:28:59;12.63;;;11.37;;
6223;SDS011;3145;42.726;23.342;2023-04-03T00:31:26;12.20;;;11.00;;
6223;SDS011;3145;42.726;23.342;2023-04-03T00:33:52;12.13;;;11.13;;
6223;SDS011;3145;42.726;23.342;2023-04-03T00:36:19;12.63;;;11.50;;
6223;SDS011;3145;42.726;23.342;2023-04-03T00:38:47;15.23;;;12.90;;
6223;SDS011;3145;42.726;23.342;2023-04-03T00:41:14;15.17;;;12.90;;
6223;SDS011;3145;42.726;23.342;2023-04-03T00:43:41;16.27;;;12.83;;
6223;SDS011;3145;42.726;23.342;2023-04-03T00:46:07;12.77;;;11.53;;
6223;SDS011;3145;42.726;23.342;2023-04-03T00:48:35;13.27;;;11.53;;
6223;SDS011;3145;42.726;23.342;2023-04-03T00:51:05;15.67;;;14.03;;
6223;SDS011;3145;42.726;23.342;2023-04-03T00:53:33;15.53;;;13.90;;
6223;SDS011;3145;42.726;23.342;2023-04-03T00:56:06;14.10;;;12.73;;
6223;SDS011;3145;42.726;23.342;2023-04-03T00:58:37;15.43;;;12.63;;
6223;SDS011;3145;42.726;23.342;2023-04-03T01:01:10;15.63;;;12.87;;
6223;SDS011;3145;42.726;23.342;2023-04-03T01:03:42;16.70;;;12.00;;
6223;SDS011;3145;42.726;23.342;2023-04-03T01:06:09;19.17;;;12.47;;
6223;SDS011;3145;42.726;23.342;2023-04-03T01:08:35;12.47;;;11.27;;
6223;SDS011;3145;42.726;23.342;2023-04-03T01:11:02;12.43;;;11.23;;
6223;SDS011;3145;42.726;23.342;2023-04-03T01:13:32;15.67;;;11.93;;
6223;SDS011;3145;42.726;23.342;2023-04-03T01:16:00;13.23;;;11.63;;
6223;SDS011;3145;42.726;23.342;2023-04-03T01:18:28;12.73;;;11.40;;
6223;SDS011;3145;42.726;23.342;2023-04-03T01:23:53;10.10;;;9.33;;
6223;SDS011;3145;42.726;23.342;2023-04-03T01:26:27;9.33;;;8.53;;
6223;SDS011;3145;42.726;23.342;2023-04-03T01:28:56;9.07;;;8.27;;
6223;SDS011;3145;42.726;23.342;2023-04-03T01:31:26;9.00;;;8.13;;
6223;SDS011;3145;42.726;23.342;2023-04-03T01:33:58;8.30;;;7.60;;
6223;SDS011;3145;42.726;23.342;2023-04-03T01:36:26;7.90;;;7.30;;
6223;SDS011;3145;42.726;23.342;2023-04-03T01:38:55;8.03;;;7.37;;
6223;SDS011;3145;42.726;23.342;2023-04-03T01:41:24;7.40;;;6.90;;
6223;SDS011;3145;42.726;23.342;2023-04-03T01:43:51;7.87;;;7.17;;
6223;SDS011;3145;42.726;23.342;2023-04-03T01:46:18;7.63;;;7.13;;
6223;SDS011;3145;42.726;23.342;2023-04-03T01:48:46;7.50;;;7.00;;
6223;SDS011;3145;42.726;23.342;2023-04-03T01:51:14;7.57;;;6.87;;
6223;SDS011;3145;42.726;23.342;2023-04-03T01:53:41;7.70;;;7.20;;
6223;SDS011;3145;42.726;23.342;2023-04-03T01:56:08;12.17;;;7.23;;
6223;SDS011;3145;42.726;23.342;2023-04-03T01:58:34;8.17;;;7.57;;
6223;SDS011;3145;42.726;23.342;2023-04-03T02:01:01;10.57;;;9.70;;
6223;SDS011;3145;42.726;23.342;2023-04-03T02:03:28;8.93;;;8.30;;
6223;SDS011;3145;42.726;23.342;2023-04-03T02:05:55;7.93;;;7.37;;
6223;SDS011;3145;42.726;23.342;2023-04-03T02:08:24;12.20;;;10.83;;
6223;SDS011;3145;42.726;23.342;2023-04-03T02:10:51;7.17;;;6.63;;
6223;SDS011;3145;42.726;23.342;2023-04-03T02:13:17;8.17;;;7.37;;
6223;SDS011;3145;42.726;23.342;2023-04-03T02:15:44;9.53;;;7.63;;
6223;SDS011;3145;42.726;23.342;2023-04-03T02:18:11;9.40;;;8.40;;
6223;SDS011;3145;42.726;23.342;2023-04-03T02:20:38;12.87;;;10.00;;
6223;SDS011;3145;42.726;23.342;2023-04-03T02:23:05;10.10;;;9.20;;
6223;SDS011;3145;42.726;23.342;2023-04-03T02:25:33;14.43;;;9.83;;
6223;SDS011;3145;42.726;23.342;2023-04-03T02:28:00;11.03;;;9.93;;
6223;SDS011;3145;42.726;23.342;2023-04-03T02:30:27;13.73;;;10.90;;
6223;SDS011;3145;42.726;23.342;2023-04-03T02:32:54;12.53;;;11.23;;
6223;SDS011;3145;42.726;23.342;2023-04-03T02:35:21;14.20;;;12.00;;
6223;SDS011;3145;42.726;23.342;2023-04-03T02:37:47;12.63;;;11.33;;
6223;SDS011;3145;42.726;23.342;2023-04-03T02:40:14;14.30;;;11.83;;
6223;SDS011;3145;42.726;23.342;2023-04-03T02:42:42;16.80;;;15.10;;
6223;SDS011;3145;42.726;23.342;2023-04-03T02:45:10;16.37;;;14.70;;
6223;SDS011;3145;42.726;23.342;2023-04-03T02:47:37;17.50;;;14.77;;
6223;SDS011;3145;42.726;23.342;2023-04-03T02:50:04;19.87;;;15.40;;
6223;SDS011;3145;42.726;23.342;2023-04-03T02:52:31;17.57;;;14.37;;
6223;SDS011;3145;42.726;23.342;2023-04-03T02:54:58;17.03;;;13.53;;
6223;SDS011;3145;42.726;23.342;2023-04-03T02:57:24;19.07;;;13.83;;
6223;SDS011;3145;42.726;23.342;2023-04-03T02:59:52;24.60;;;19.30;;
6223;SDS011;3145;42.726;23.342;2023-04-03T03:02:19;23.67;;;18.53;;
6223;SDS011;3145;42.726;23.342;2023-04-03T03:04:46;19.90;;;17.33;;
6223;SDS011;3145;42.726;23.342;2023-04-03T03:07:13;23.13;;;17.03;;
6223;SDS011;3145;42.726;23.342;2023-04-03T03:09:39;36.93;;;21.30;;
6223;SDS011;3145;42.726;23.342;2023-04-03T03:12:07;32.67;;;18.47;;
6223;SDS011;3145;42.726;23.342;2023-04-03T03:14:33;57.27;;;26.87;;
6223;SDS011;3145;42.726;23.342;2023-04-03T03:17:01;49.30;;;24.97;;
6223;SDS011;3145;42.726;23.342;2023-04-03T03:19:28;51.93;;;24.07;;
6223;SDS011;3145;42.726;23.342;2023-04-03T03:21:55;45.47;;;23.50;;
6223;SDS011;3145;42.726;23.342;2023-04-03T03:24:22;46.17;;;23.30;;
6223;SDS011;3145;42.726;23.342;2023-04-03T03:26:48;41.30;;;22.73;;
6223;SDS011;3145;42.726;23.342;2023-04-03T03:29:15;55.30;;;25.83;;
6223;SDS011;3145;42.726;23.342;2023-04-03T03:31:42;30.60;;;19.53;;
6223;SDS011;3145;42.726;23.342;2023-04-03T03:34:10;46.33;;;25.50;;
6223;SDS011;3145;42.726;23.342;2023-04-03T03:36:36;39.23;;;22.27;;
6223;SDS011;3145;42.726;23.342;2023-04-03T03:39:03;42.87;;;24.77;;
6223;SDS011;3145;42.726;23.342;2023-04-03T03:41:30;39.63;;;21.50;;
6223;SDS011;3145;42.726;23.342;2023-04-03T03:43:57;28.07;;;18.07;;
6223;SDS011;3145;42.726;23.342;2023-04-03T03:46:24;19.83;;;15.07;;
6223;SDS011;3145;42.726;23.342;2023-04-03T03:48:51;16.20;;;14.40;;
6223;SDS011;3145;42.726;23.342;2023-04-03T03:51:19;17.07;;;14.83;;
6223;SDS011;3145;42.726;23.342;2023-04-03T03:53:45;26.57;;;17.00;;
6223;SDS011;3145;42.726;23.342;2023-04-03T03:56:12;24.00;;;17.47;;
6223;SDS011;3145;42.726;23.342;2023-04-03T03:58:39;21.60;;;16.10;;
6223;SDS011;3145;42.726;23.342;2023-04-03T04:01:06;25.43;;;16.67;;
6223;SDS011;3145;42.726;23.342;2023-04-03T04:03:33;30.47;;;17.43;;
6223;SDS011;3145;42.726;23.342;2023-04-03T04:06:00;19.10;;;15.73;;
6223;SDS011;3145;42.726;23.342;2023-04-03T04:08:28;26.67;;;15.80;;
6223;SDS011;3145;42.726;23.342;2023-04-03T04:10:55;22.73;;;15.77;;
6223;SDS011;3145;42.726;23.342;2023-04-03T04:13:22;19.80;;;16.03;;
6223;SDS011;3145;42.726;23.342;2023-04-03T04:15:48;21.53;;;16.50;;
6223;SDS011;3145;42.726;23.342;2023-04-03T04:18:18;20.57;;;16.83;;
6223;SDS011;3145;42.726;23.342;2023-04-03T04:20:47;32.57;;;22.10;;
6223;SDS011;3145;42.726;23.342;2023-04-03T04:23:15;39.07;;;25.20;;
6223;SDS011;3145;42.726;23.342;2023-04-03T04:25:45;45.20;;;27.63;;
6223;SDS011;3145;42.726;23.342;2023-04-03T04:28:12;41.20;;;25.93;;
6223;SDS011;3145;42.726;23.342;2023-04-03T04:30:39;35.63;;;22.03;;
6223;SDS011;3145;42.726;23.342;2023-04-03T04:33:06;27.37;;;19.70;;
6223;SDS011;3145;42.726;23.342;2023-04-03T04:35:33;30.33;;;26.90;;
6223;SDS011;3145;42.726;23.342;2023-04-03T04:38:00;28.53;;;20.83;;
6223;SDS011;3145;42.726;23.342;2023-04-03T04:40:27;26.43;;;20.73;;
6223;SDS011;3145;42.726;23.342;2023-04-03T04:42:56;29.50;;;23.90;;
6223;SDS011;3145;42.726;23.342;2023-04-03T04:45:22;35.23;;;24.03;;
6223;SDS011;3145;42.726;23.342;2023-04-03T04:47:49;32.33;;;24.87;;
6223;SDS011;3145;42.726;23.342;2023-04-03T04:50:17;33.67;;;26.07;;
6223;SDS011;3145;42.726;23.342;2023-04-03T04:52:44;39.83;;;28.90;;
6223;SDS011;3145;42.726;23.342;2023-04-03T04:55:11;55.87;;;33.40;;
6223;SDS011;3145;42.726;23.342;2023-04-03T04:57:38;40.10;;;28.83;;
6223;SDS011;3145;42.726;23.342;2023-04-03T05:00:07;40.17;;;23.83;;
6223;SDS011;3145;42.726;23.342;2023-04-03T05:02:34;37.63;;;25.13;;
6223;SDS011;3145;42.726;23.342;2023-04-03T05:05:01;42.83;;;25.80;;
6223;SDS011;3145;42.726;23.342;2023-04-03T05:07:28;39.80;;;29.07;;
6223;SDS011;3145;42.726;23.342;2023-04-03T05:09:55;57.33;;;41.13;;
6223;SDS011;3145;42.726;23.342;2023-04-03T05:12:21;39.63;;;27.87;;
6223;SDS011;3145;42.726;23.342;2023-04-03T05:14:48;37.00;;;26.33;;
6223;SDS011;3145;42.726;23.342;2023-04-03T05:17:16;33.83;;;25.47;;
6223;SDS011;3145;42.726;23.342;2023-04-03T05:19:43;34.07;;;22.43;;
6223;SDS011;3145;42.726;23.342;2023-04-03T05:22:09;32.87;;;23.03;;
6223;SDS011;3145;42.726;23.342;2023-04-03T05:24:36;28.53;;;23.00;;
6223;SDS011;3145;42.726;23.342;2023-04-03T05:27:03;33.53;;;25.53;;
6223;SDS011;3145;42.726;23.342;2023-04-03T05:29:30;41.37;;;26.27;;
6223;SDS011;3145;42.726;23.342;2023-04-03T05:31:56;37.10;;;27.67;;
6223;SDS011;3145;42.726;23.342;2023-04-03T05:34:24;53.77;;;32.47;;
6223;SDS011;3145;42.726;23.342;2023-04-03T05:36:51;63.70;;;31.70;;
6223;SDS011;3145;42.726;23.342;2023-04-03T05:39:18;55.17;;;30.47;;
6223;SDS011;3145;42.726;23.342;2023-04-03T05:41:44;96.43;;;43.33;;
6223;SDS011;3145;42.726;23.342;2023-04-03T05:44:11;58.30;;;33.07;;
6223;SDS011;3145;42.726;23.342;2023-04-03T05:46:38;45.40;;;28.20;;
6223;SDS011;3145;42.726;23.342;2023-04-03T05:49:04;39.83;;;26.40;;
6223;SDS011;3145;42.726;23.342;2023-04-03T05:51:33;46.27;;;26.53;;
6223;SDS011;3145;42.726;23.342;2023-04-03T05:54:03;37.43;;;26.10;;
6223;SDS011;3145;42.726;23.342;2023-04-03T05:56:36;40.83;;;24.73;;
6223;SDS011;3145;42.726;23.342;2023-04-03T05:59:02;39.23;;;26.20;;
6223;SDS011;3145;42.726;23.342;2023-04-03T06:01:29;41.33;;;28.60;;
6223;SDS011;3145;42.726;23.342;2023-04-03T06:03:56;44.13;;;27.63;;
6223;SDS011;3145;42.726;23.342;2023-04-03T06:06:23;31.87;;;24.87;;
6223;SDS011;3145;42.726;23.342;2023-04-03T06:08:51;32.07;;;23.73;;
6223;SDS011;3145;42.726;23.342;2023-04-03T06:11:18;35.90;;;24.97;;
6223;SDS011;3145;42.726;23.342;2023-04-03T06:13:46;45.00;;;29.80;;
6223;SDS011;3145;42.726;23.342;2023-04-03T06:16:13;39.57;;;27.17;;
6223;SDS011;3145;42.726;23.342;2023-04-03T06:18:45;40.03;;;26.20;;
6223;SDS011;3145;42.726;23.342;2023-04-03T06:21:12;39.17;;;24.00;;
6223;SDS011;3145;42.726;23.342;2023-04-03T06:23:38;36.53;;;24.23;;
6223;SDS011;3145;42.726;23.342;2023-04-03T06:26:07;29.50;;;21.93;;
6223;SDS011;3145;42.726;23.342;2023-04-03T06:28:33;34.83;;;22.30;;
6223;SDS011;3145;42.726;23.342;2023-04-03T06:31:00;22.67;;;17.43;;
6223;SDS011;3145;42.726;23.342;2023-04-03T06:33:27;20.37;;;17.33;;
6223;SDS011;3145;42.726;23.342;2023-04-03T06:35:57;20.07;;;15.23;;
6223;SDS011;3145;42.726;23.342;2023-04-03T06:38:24;16.67;;;14.93;;
6223;SDS011;3145;42.726;23.342;2023-04-03T06:40:50;18.23;;;14.67;;
6223;SDS011;3145;42.726;23.342;2023-04-03T06:43:19;19.23;;;15.63;;
6223;SDS011;3145;42.726;23.342;2023-04-03T06:45:46;23.37;;;17.67;;
6223;SDS011;3145;42.726;23.342;2023-04-03T06:48:13;25.97;;;19.30;;
6223;SDS011;3145;42.726;23.342;2023-04-03T06:50:40;28.00;;;20.33;;
6223;SDS011;3145;42.726;23.342;2023-04-03T06:53:07;30.77;;;19.50;;
6223;SDS011;3145;42.726;23.342;2023-04-03T06:55:34;26.90;;;20.27;;
6223;SDS011;3145;42.726;23.342;2023-04-03T06:58:00;27.90;;;21.23;;
6223;SDS011;3145;42.726;23.342;2023-04-03T07:00:29;29.10;;;17.30;;
6223;SDS011;3145;42.726;23.342;2023-04-03T07:02:56;26.30;;;18.37;;
6223;SDS011;3145;42.726;23.342;2023-04-03T07:05:23;22.00;;;15.60;;
6223;SDS011;3145;42.726;23.342;2023-04-03T07:07:50;23.90;;;17.03;;
6223;SDS011;3145;42.726;23.342;2023-04-03T07:10:17;23.83;;;16.77;;
6223;SDS011;3145;42.726;23.342;2023-04-03T07:12:44;26.23;;;17.40;;
6223;SDS011;3145;42.726;23.342;2023-04-03T07:15:11;24.83;;;16.57;;
6223;SDS011;3145;42.726;23.342;2023-04-03T07:17:40;20.50;;;14.53;;
6223;SDS011;3145;42.726;23.342;2023-04-03T07:20:07;23.50;;;15.50;;
6223;SDS011;3145;42.726;23.342;2023-04-03T07:22:35;15.90;;;14.30;;
6223;SDS011;3145;42.726;23.342;2023-04-03T07:25:02;26.13;;;16.90;;
6223;SDS011;3145;42.726;23.342;2023-04-03T07:27:31;20.27;;;13.63;;
6223;SDS011;3145;42.726;23.342;2023-04-03T07:29:58;21.03;;;15.40;;
6223;SDS011;3145;42.726;23.342;2023-04-03T07:32:25;22.57;;;14.20;;
6223;SDS011;3145;42.726;23.342;2023-04-03T07:34:53;21.40;;;14.70;;
6223;SDS011;3145;42.726;23.342;2023-04-03T07:37:20;22.53;;;14.30;;
6223;SDS011;3145;42.726;23.342;2023-04-03T07:39:47;21.03;;;16.83;;
6223;SDS011;3145;42.726;23.342;2023-04-03T07:42:14;22.70;;;15.50;;
6223;SDS011;3145;42.726;23.342;2023-04-03T07:44:41;22.50;;;16.50;;
6223;SDS011;3145;42.726;23.342;2023-04-03T07:47:08;23.63;;;17.87;;
6223;SDS011;3145;42.726;23.342;2023-04-03T07:49:35;25.03;;;17.13;;
6223;SDS011;3145;42.726;23.342;2023-04-03T07:52:06;25.47;;;18.13;;
6223;SDS011;3145;42.726;23.342;2023-04-03T07:54:34;24.47;;;17.43;;
6223;SDS011;3145;42.726;23.342;2023-04-03T07:57:00;25.70;;;18.50;;
6223;SDS011;3145;42.726;23.342;2023-04-03T07:59:27;25.87;;;19.20;;
6223;SDS011;3145;42.726;23.342;2023-04-03T08:01:54;29.13;;;20.20;;
6223;SDS011;3145;42.726;23.342;2023-04-03T08:04:21;26.43;;;20.37;;
6223;SDS011;3145;42.726;23.342;2023-04-03T08:06:47;21.10;;;17.87;;
6223;SDS011;3145;42.726;23.342;2023-04-03T08:09:16;22.57;;;16.33;;
6223;SDS011;3145;42.726;23.342;2023-04-03T08:11:43;19.33;;;14.93;;
6223;SDS011;3145;42.726;23.342;2023-04-03T08:14:10;13.97;;;12.53;;
6223;SDS011;3145;42.726;23.342;2023-04-03T08:16:41;16.80;;;14.70;;
6223;SDS011;3145;42.726;23.342;2023-04-03T08:19:09;15.53;;;12.87;;
6223;SDS011;3145;42.726;23.342;2023-04-03T08:21:36;11.33;;;10.20;;
6223;SDS011;3145;42.726;23.342;2023-04-03T08:24:03;15.60;;;13.93;;
6223;SDS011;3145;42.726;23.342;2023-04-03T08:26:32;13.37;;;12.10;;
6223;SDS011;3145;42.726;23.342;2023-04-03T08:28:59;13.60;;;12.30;;
6223;SDS011;3145;42.726;23.342;2023-04-03T08:31:25;12.37;;;11.17;;
6223;SDS011;3145;42.726;23.342;2023-04-03T08:33:52;14.50;;;11.83;;
6223;SDS011;3145;42.726;23.342;2023-04-03T08:36:20;27.57;;;21.03;;
6223;SDS011;3145;42.726;23.342;2023-04-03T08:38:48;19.03;;;14.57;;
6223;SDS011;3145;42.726;23.342;2023-04-03T08:41:15;14.37;;;12.47;;
6223;SDS011;3145;42.726;23.342;2023-04-03T08:43:59;19.23;;;14.20;;
6223;SDS011;3145;42.726;23.342;2023-04-03T08:46:38;19.97;;;16.07;;
6223;SDS011;3145;42.726;23.342;2023-04-03T08:49:15;26.87;;;17.27;;
6223;SDS011;3145;42.726;23.342;2023-04-03T08:51:49;34.20;;;18.60;;
6223;SDS011;3145;42.726;23.342;2023-04-03T08:54:20;26.33;;;18.70;;
6223;SDS011;3145;42.726;23.342;2023-04-03T08:56:55;28.33;;;19.03;;
6223;SDS011;3145;42.726;23.342;2023-04-03T08:59:26;38.37;;;21.13;;
6223;SDS011;3145;42.726;23.342;2023-04-03T09:01:56;25.20;;;18.03;;
6223;SDS011;3145;42.726;23.342;2023-04-03T09:04:27;29.30;;;18.20;;
6223;SDS011;3145;42.726;23.342;2023-04-03T09:06:58;39.27;;;24.20;;
6223;SDS011;3145;42.726;23.342;2023-04-03T09:09:35;43.90;;;29.90;;
6223;SDS011;3145;42.726;23.342;2023-04-03T09:12:09;34.47;;;20.63;;
6223;SDS011;3145;42.726;23.342;2023-04-03T09:14:45;29.43;;;19.27;;
6223;SDS011;3145;42.726;23.342;2023-04-03T09:17:21;37.10;;;21.17;;
6223;SDS011;3145;42.726;23.342;2023-04-03T09:19:58;39.13;;;26.17;;
6223;SDS011;3145;42.726;23.342;2023-04-03T09:22:36;44.67;;;23.80;;
6223;SDS011;3145;42.726;23.342;2023-04-03T09:25:10;30.77;;;17.53;;
6223;SDS011;3145;42.726;23.342;2023-04-03T09:27:41;20.77;;;16.03;;
6223;SDS011;3145;42.726;23.342;2023-04-03T09:30:13;21.63;;;16.07;;
6223;SDS011;3145;42.726;23.342;2023-04-03T09:32:41;28.67;;;18.60;;
6223;SDS011;3145;42.726;23.342;2023-04-03T09:35:15;39.77;;;28.43;;
6223;SDS011;3145;42.726;23.342;2023-04-03T09:37:45;27.73;;;21.57;;
6223;SDS011;3145;42.726;23.342;2023-04-03T09:40:27;28.77;;;19.40;;
6223;SDS011;3145;42.726;23.342;2023-04-03T09:43:01;21.57;;;18.33;;
6223;SDS011;3145;42.726;23.342;2023-04-03T09:45:31;20.07;;;15.93;;
6223;SDS011;3145;42.726;23.342;2023-04-03T09:48:04;24.90;;;15.37;;
6223;SDS011;3145;42.726;23.342;2023-04-03T09:50:41;19.57;;;14.27;;
6223;SDS011;3145;42.726;23.342;2023-04-03T09:53:25;21.13;;;15.30;;
6223;SDS011;3145;42.726;23.342;2023-04-03T09:55:54;21.87;;;14.43;;
6223;SDS011;3145;42.726;23.342;2023-04-03T09:58:25;22.77;;;14.20;;
6223;SDS011;3145;42.726;23.342;2023-04-03T10:00:56;21.03;;;15.30;;
6223;SDS011;3145;42.726;23.342;2023-04-03T10:03:25;19.03;;;14.33;;
6223;SDS011;3145;42.726;23.342;2023-04-03T10:05:56;29.33;;;19.23;;
6223;SDS011;3145;42.726;23.342;2023-04-03T10:08:24;38.67;;;22.50;;
6223;SDS011;3145;42.726;23.342;2023-04-03T10:11:13;19.50;;;14.40;;
6223;SDS011;3145;42.726;23.342;2023-04-03T10:13:52;39.40;;;25.93;;
6223;SDS011;3145;42.726;23.342;2023-04-03T10:16:23;18.50;;;12.77;;
6223;SDS011;3145;42.726;23.342;2023-04-03T10:19:00;17.87;;;13.47;;
6223;SDS011;3145;42.726;23.342;2023-04-03T10:21:39;17.80;;;13.97;;
6223;SDS011;3145;42.726;23.342;2023-04-03T10:24:11;18.33;;;12.70;;
6223;SDS011;3145;42.726;23.342;2023-04-03T10:26:48;19.77;;;14.10;;
6223;SDS011;3145;42.726;23.342;2023-04-03T10:29:25;20.83;;;13.50;;
6223;SDS011;3145;42.726;23.342;2023-04-03T10:32:07;21.67;;;14.37;;
6223;SDS011;3145;42.726;23.342;2023-04-03T10:35:02;23.27;;;15.10;;
6223;SDS011;3145;42.726;23.342;2023-04-03T10:37:42;23.80;;;13.80;;
6223;SDS011;3145;42.726;23.342;2023-04-03T10:40:23;23.40;;;12.77;;
6223;SDS011;3145;42.726;23.342;2023-04-03T10:42:59;17.17;;;11.53;;
6223;SDS011;3145;42.726;23.342;2023-04-03T10:45:30;16.47;;;10.67;;
6223;SDS011;3145;42.726;23.342;2023-04-03T10:48:24;27.07;;;13.43;;
6223;SDS011;3145;42.726;23.342;2023-04-03T10:51:05;13.10;;;10.37;;
6223;SDS011;3145;42.726;23.342;2023-04-03T10:53:41;11.97;;;10.03;;
6223;SDS011;3145;42.726;23.342;2023-04-03T10:56:17;14.03;;;11.13;;
6223;SDS011;3145;42.726;23.342;2023-04-03T10:58:52;13.20;;;10.00;;
6223;SDS011;3145;42.726;23.342;2023-04-03T11:01:23;20.20;;;14.00;;
6223;SDS011;3145;42.726;23.342;2023-04-03T11:03:59;11.90;;;10.13;;
6223;SDS011;3145;42.726;23.342;2023-04-03T11:06:30;15.17;;;11.53;;
6223;SDS011;3145;42.726;23.342;2023-04-03T11:09:02;16.00;;;12.47;;
6223;SDS011;3145;42.726;23.342;2023-04-03T11:11:41;27.00;;;14.43;;
6223;SDS011;3145;42.726;23.342;2023-04-03T11:14:09;16.40;;;11.53;;
6223;SDS011;3145;42.726;23.342;2023-04-03T11:16:42;19.23;;;11.40;;
6223;SDS011;3145;42.726;23.342;2023-04-03T11:19:15;13.73;;;11.13;;
6223;SDS011;3145;42.726;23.342;2023-04-03T11:21:50;14.30;;;10.60;;
6223;SDS011;3145;42.726;23.342;2023-04-03T11:24:22;26.40;;;13.90;;
6223;SDS011;3145;42.726;23.342;2023-04-03T11:26:51;22.23;;;10.87;;
6223;SDS011;3145;42.726;23.342;2023-04-03T11:29:21;17.73;;;10.70;;
6223;SDS011;3145;42.726;23.342;2023-04-03T11:31:57;12.47;;;11.23;;
6223;SDS011;3145;42.726;23.342;2023-04-03T11:34:37;10.27;;;8.07;;
6223;SDS011;3145;42.726;23.342;2023-04-03T11:37:11;9.97;;;8.07;;
6223;SDS011;3145;42.726;23.342;2023-04-03T11:39:47;7.80;;;6.33;;
6223;SDS011;3145;42.726;23.342;2023-04-03T11:42:24;10.47;;;6.93;;
6223;SDS011;3145;42.726;23.342;2023-04-03T11:48:09;12.77;;;9.50;;
6223;SDS011;3145;42.726;23.342;2023-04-03T12:09:35;16.03;;;14.33;;
6223;SDS011;3145;42.726;23.342;2023-04-03T12:12:28;10.20;;;9.27;;
6223;SDS011;3145;42.726;23.342;2023-04-03T12:15:11;9.00;;;8.20;;
6223;SDS011;3145;42.726;23.342;2023-04-03T12:17:49;10.90;;;9.70;;
6223;SDS011;3145;42.726;23.342;2023-04-03T12:23:30;15.10;;;10.83;;
6223;SDS011;3145;42.726;23.342;2023-04-03T12:26:03;9.03;;;8.13;;
6223;SDS011;3145;42.726;23.342;2023-04-03T12:28:44;26.93;;;18.20;;
6223;SDS011;3145;42.726;23.342;2023-04-03T12:31:13;14.43;;;11.03;;
6223;SDS011;3145;42.726;23.342;2023-04-03T12:33:55;14.37;;;12.17;;
6223;SDS011;3145;42.726;23.342;2023-04-03T12:36:39;13.60;;;10.97;;
6223;SDS011;3145;42.726;23.342;2023-04-03T12:39:16;10.30;;;9.10;;
6223;SDS011;3145;42.726;23.342;2023-04-03T12:42:06;9.83;;;9.00;;
6223;SDS011;3145;42.726;23.342;2023-04-03T12:44:52;10.03;;;9.10;;
6223;SDS011;3145;42.726;23.342;2023-04-03T12:47:26;7.70;;;7.13;;
6223;SDS011;3145;42.726;23.342;2023-04-03T12:49:58;9.07;;;8.17;;
6223;SDS011;3145;42.726;23.342;2023-04-03T12:52:30;8.63;;;7.93;;
6223;SDS011;3145;42.726;23.342;2023-04-03T12:55:01;9.77;;;9.07;;
6223;SDS011;3145;42.726;23.342;2023-04-03T12:57:31;9.90;;;9.00;;
6223;SDS011;3145;42.726;23.342;2023-04-03T12:59:58;9.67;;;8.93;;
6223;SDS011;3145;42.726;23.342;2023-04-03T13:02:26;11.23;;;10.13;;
6223;SDS011;3145;42.726;23.342;2023-04-03T13:04:56;11.50;;;10.47;;
6223;SDS011;3145;42.726;23.342;2023-04-03T13:07:27;12.27;;;11.13;;
6223;SDS011;3145;42.726;23.342;2023-04-03T13:10:09;13.97;;;12.17;;
6223;SDS011;3145;42.726;23.342;2023-04-03T13:12:47;13.50;;;10.63;;
6223;SDS011;3145;42.726;23.342;2023-04-03T13:15:16;14.07;;;12.73;;
6223;SDS011;3145;42.726;23.342;2023-04-03T13:17:45;15.30;;;13.90;;
6223;SDS011;3145;42.726;23.342;2023-04-03T13:20:14;25.67;;;17.73;;
6223;SDS011;3145;42.726;23.342;2023-04-03T13:22:47;27.50;;;19.87;;
6223;SDS011;3145;42.726;23.342;2023-04-03T13:25:16;13.50;;;12.17;;
6223;SDS011;3145;42.726;23.342;2023-04-03T13:27:44;14.60;;;11.30;;
6223;SDS011;3145;42.726;23.342;2023-04-03T13:30:23;13.33;;;12.07;;
6223;SDS011;3145;42.726;23.342;2023-04-03T13:32:54;15.43;;;13.03;;
6223;SDS011;3145;42.726;23.342;2023-04-03T13:35:27;14.63;;;13.00;;
6223;SDS011;3145;42.726;23.342;2023-04-03T13:37:56;19.57;;;14.97;;
6223;SDS011;3145;42.726;23.342;2023-04-03T13:40:24;17.23;;;13.30;;
6223;SDS011;3145;42.726;23.342;2023-04-03T13:45:54;19.33;;;13.90;;
6223;SDS011;3145;42.726;23.342;2023-04-03T13:48:23;13.77;;;12.30;;
6223;SDS011;3145;42.726;23.342;2023-04-03T13:50:55;18.10;;;15.70;;
6223;SDS011;3145;42.726;23.342;2023-04-03T13:53:26;23.43;;;18.67;;
6223;SDS011;3145;42.726;23.342;2023-04-03T13:55:56;17.97;;;14.20;;
6223;SDS011;3145;42.726;23.342;2023-04-03T13:58:31;14.63;;;11.93;;
6223;SDS011;3145;42.726;23.342;2023-04-03T14:01:06;25.80;;;18.80;;
6223;SDS011;3145;42.726;23.342;2023-04-03T14:03:39;31.30;;;20.90;;
6223;SDS011;3145;42.726;23.342;2023-04-03T14:06:09;26.00;;;17.10;;
6223;SDS011;3145;42.726;23.342;2023-04-03T14:08:37;12.33;;;10.63;;
6223;SDS011;3145;42.726;23.342;2023-04-03T14:11:04;9.87;;;9.10;;
6223;SDS011;3145;42.726;23.342;2023-04-03T14:13:31;7.90;;;7.30;;
6223;SDS011;3145;42.726;23.342;2023-04-03T14:15:58;12.00;;;10.80;;
6223;SDS011;3145;42.726;23.342;2023-04-03T14:18:27;6.87;;;6.40;;
6223;SDS011;3145;42.726;23.342;2023-04-03T14:20:54;9.03;;;8.30;;
6223;SDS011;3145;42.726;23.342;2023-04-03T14:23:20;9.83;;;8.97;;
6223;SDS011;3145;42.726;23.342;2023-04-03T14:25:47;11.97;;;11.07;;
6223;SDS011;3145;42.726;23.342;2023-04-03T14:28:15;7.20;;;6.60;;
6223;SDS011;3145;42.726;23.342;2023-04-03T14:30:44;5.70;;;5.30;;
6223;SDS011;3145;42.726;23.342;2023-04-03T14:33:13;6.27;;;5.73;;
6223;SDS011;3145;42.726;23.342;2023-04-03T14:35:44;8.57;;;7.17;;
6223;SDS011;3145;42.726;23.342;2023-04-03T14:38:13;7.50;;;6.90;;
6223;SDS011;3145;42.726;23.342;2023-04-03T14:40:48;11.67;;;10.17;;
6223;SDS011;3145;42.726;23.342;2023-04-03T14:43:16;12.07;;;11.07;;
6223;SDS011;3145;42.726;23.342;2023-04-03T14:45:43;12.77;;;11.47;;
6223;SDS011;3145;42.726;23.342;2023-04-03T14:48:10;15.77;;;14.10;;
6223;SDS011;3145;42.726;23.342;2023-04-03T14:50:45;10.33;;;9.33;;
6223;SDS011;3145;42.726;23.342;2023-04-03T14:53:13;18.23;;;15.13;;
6223;SDS011;3145;42.726;23.342;2023-04-03T14:55:42;20.17;;;16.83;;
6223;SDS011;3145;42.726;23.342;2023-04-03T14:58:12;18.50;;;15.17;;
6223;SDS011;3145;42.726;23.342;2023-04-03T15:00:40;18.00;;;15.80;;
6223;SDS011;3145;42.726;23.342;2023-04-03T15:03:11;15.40;;;12.37;;
6223;SDS011;3145;42.726;23.342;2023-04-03T15:05:39;16.97;;;14.43;;
6223;SDS011;3145;42.726;23.342;2023-04-03T15:08:09;21.10;;;17.87;;
6223;SDS011;3145;42.726;23.342;2023-04-03T15:10:43;18.87;;;15.87;;
6223;SDS011;3145;42.726;23.342;2023-04-03T15:13:10;21.50;;;16.07;;
6223;SDS011;3145;42.726;23.342;2023-04-03T15:15:38;18.03;;;14.50;;
6223;SDS011;3145;42.726;23.342;2023-04-03T15:18:05;15.50;;;13.77;;
6223;SDS011;3145;42.726;23.342;2023-04-03T15:20:32;23.50;;;18.17;;
6223;SDS011;3145;42.726;23.342;2023-04-03T15:23:00;19.53;;;17.30;;
6223;SDS011;3145;42.726;23.342;2023-04-03T15:25:29;15.43;;;13.87;;